createdAt,value
2022-09-23T00:01:14.855Z,3.35
2022-09-23T00:03:45.409Z,4.57
2022-09-23T00:06:18.575Z,2.75
2022-09-23T00:08:46.194Z,3.10
2022-09-23T00:11:21.935Z,2.97
2022-09-23T00:13:51.366Z,3.15
2022-09-23T00:16:22.017Z,3.03
2022-09-23T00:18:50.597Z,3.38
2022-09-23T00:21:19.385Z,2.97
2022-09-23T00:23:46.858Z,3.15
2022-09-23T00:26:17.166Z,2.90
2022-09-23T00:28:44.613Z,3.15
2022-09-23T00:31:15.282Z,3.05
2022-09-23T00:33:42.742Z,2.75
2022-09-23T00:36:16.899Z,2.72
2022-09-23T00:38:45.226Z,3.00
2022-09-23T00:41:15.162Z,2.67
2022-09-23T00:43:42.315Z,2.28
2022-09-23T00:46:13.539Z,2.78
2022-09-23T00:48:42.899Z,2.65
2022-09-23T00:51:17.777Z,2.95
2022-09-23T00:53:51.169Z,2.65
2022-09-23T00:56:21.562Z,3.20
2022-09-23T00:58:50.694Z,2.67
2022-09-23T01:01:19.740Z,2.45
2022-09-23T01:03:47.584Z,3.08
2022-09-23T01:06:14.869Z,3.40
2022-09-23T01:08:45.299Z,2.95
2022-09-23T01:11:24.221Z,2.65
2022-09-23T01:14:04.454Z,2.90
2022-09-23T01:16:50.054Z,4.22
2022-09-23T01:19:36.596Z,3.83
2022-09-23T01:22:35.842Z,4.00
2022-09-23T01:25:14.820Z,3.67
2022-09-23T01:28:00.125Z,3.75
2022-09-23T01:30:45.941Z,3.80
2022-09-23T01:33:24.934Z,4.00
2022-09-23T01:36:04.044Z,3.90
2022-09-23T01:38:44.841Z,4.10
2022-09-23T01:41:33.427Z,4.22
2022-09-23T01:44:13.150Z,4.18
2022-09-23T01:46:54.976Z,3.72
2022-09-23T01:49:30.822Z,3.72
2022-09-23T01:52:11.807Z,4.10
2022-09-23T01:54:53.160Z,4.03
2022-09-23T01:57:28.877Z,3.78
2022-09-23T02:00:18.126Z,4.68
2022-09-23T02:03:07.313Z,4.10
2022-09-23T02:05:39.623Z,4.57
2022-09-23T02:08:32.023Z,5.25
2022-09-23T02:11:06.487Z,4.20
2022-09-23T02:13:56.061Z,4.40
2022-09-23T02:16:35.713Z,4.60
2022-09-23T02:19:13.808Z,4.68
2022-09-23T02:21:47.031Z,3.67
2022-09-23T02:24:19.522Z,4.10
2022-09-23T02:26:55.801Z,4.60
2022-09-23T02:29:33.667Z,4.07
2022-09-23T02:32:17.758Z,4.40
2022-09-23T02:37:43.550Z,4.28
2022-09-23T02:40:15.247Z,4.80
2022-09-23T02:43:06.916Z,4.22
2022-09-23T02:45:34.369Z,4.78
2022-09-23T02:48:33.911Z,5.00
2022-09-23T02:51:03.583Z,4.88
2022-09-23T02:53:35.118Z,4.70
2022-09-23T02:56:13.253Z,6.57
2022-09-23T02:58:40.423Z,4.82
2022-09-23T03:01:18.977Z,4.00
2022-09-23T03:03:54.929Z,4.78
2022-09-23T03:06:25.099Z,4.85
2022-09-23T03:09:09.177Z,4.75
2022-09-23T03:14:19.798Z,4.78
2022-09-23T03:17:08.626Z,4.63
2022-09-23T03:19:59.199Z,4.60
2022-09-23T03:22:39.341Z,4.60
2022-09-23T03:25:12.018Z,5.50
2022-09-23T03:27:42.326Z,5.35
2022-09-23T03:30:10.733Z,6.10
2022-09-23T03:32:39.456Z,6.25
2022-09-23T03:35:07.126Z,6.60
2022-09-23T03:37:40.698Z,6.97
2022-09-23T03:40:22.936Z,6.25
2022-09-23T03:42:50.314Z,5.90
2022-09-23T03:45:22.275Z,5.60
2022-09-23T03:47:49.410Z,7.10
2022-09-23T03:50:17.330Z,7.10
2022-09-23T03:52:45.057Z,6.60
2022-09-23T03:55:12.202Z,6.35
2022-09-23T03:57:39.648Z,5.50
2022-09-23T04:00:07.875Z,5.05
2022-09-23T04:02:41.366Z,5.75
2022-09-23T04:05:12.754Z,5.97
2022-09-23T04:07:40.294Z,5.65
2022-09-23T04:10:07.846Z,6.00
2022-09-23T04:12:35.105Z,6.25
2022-09-23T04:15:02.522Z,6.28
2022-09-23T04:17:30.135Z,6.63
2022-09-23T04:19:57.214Z,7.57
2022-09-23T04:22:24.454Z,6.70
2022-09-23T04:24:51.548Z,6.03
2022-09-23T04:27:18.808Z,5.38
2022-09-23T04:29:45.957Z,6.28
2022-09-23T04:32:13.078Z,6.43
2022-09-23T04:34:40.178Z,5.55
2022-09-23T04:37:07.318Z,5.80
2022-09-23T04:39:34.683Z,4.47
2022-09-23T04:42:04.041Z,4.38
2022-09-23T04:44:31.183Z,5.22
2022-09-23T04:46:58.443Z,4.38
2022-09-23T04:49:26.211Z,4.18
2022-09-23T04:51:54.276Z,4.70
2022-09-23T04:54:21.362Z,4.03
2022-09-23T04:56:48.499Z,4.13
2022-09-23T04:59:15.660Z,4.70
2022-09-23T05:01:43.047Z,4.78
2022-09-23T05:04:13.842Z,4.07
2022-09-23T05:06:43.639Z,4.75
2022-09-23T05:09:16.140Z,4.70
2022-09-23T05:11:44.178Z,4.18
2022-09-23T05:14:11.375Z,5.10
2022-09-23T05:16:38.472Z,3.95
2022-09-23T05:19:05.806Z,3.08
2022-09-23T05:21:32.924Z,3.30
2022-09-23T05:24:00.843Z,2.95
2022-09-23T05:26:30.894Z,3.42
2022-09-23T05:28:59.022Z,2.70
2022-09-23T05:31:28.822Z,3.05
2022-09-23T05:34:01.030Z,2.88
2022-09-23T05:36:34.224Z,2.78
2022-09-23T05:39:05.114Z,3.38
2022-09-23T05:41:33.818Z,3.33
2022-09-23T05:44:01.634Z,2.88
2022-09-23T05:46:31.030Z,3.53
2022-09-23T05:49:02.619Z,3.38
2022-09-23T05:51:32.431Z,3.40
2022-09-23T05:54:02.845Z,3.85
2022-09-23T05:56:31.337Z,3.67
2022-09-23T05:59:00.324Z,3.35
2022-09-23T06:01:32.497Z,3.42
2022-09-23T06:04:01.112Z,3.20
2022-09-23T06:06:30.829Z,4.10
2022-09-23T06:08:59.309Z,3.83
2022-09-23T06:11:27.285Z,3.28
2022-09-23T06:13:56.091Z,3.92
2022-09-23T06:16:23.283Z,4.10
2022-09-23T06:18:50.435Z,3.38
2022-09-23T06:21:17.957Z,4.20
2022-09-23T06:23:45.846Z,3.55
2022-09-23T06:26:15.674Z,3.60
2022-09-23T06:28:44.697Z,4.10
2022-09-23T06:31:14.872Z,3.92
2022-09-23T06:33:45.769Z,3.45
2022-09-23T06:36:23.524Z,3.53
2022-09-23T06:38:57.944Z,4.43
2022-09-23T06:41:25.012Z,3.85
2022-09-23T06:43:54.753Z,3.88
2022-09-23T06:46:21.862Z,3.95
2022-09-23T06:48:51.044Z,3.42
2022-09-23T06:51:21.686Z,3.47
2022-09-23T06:53:49.703Z,3.45
2022-09-23T06:56:17.896Z,2.92
2022-09-23T06:58:45.054Z,3.00
2022-09-23T07:01:18.087Z,3.47
2022-09-23T07:03:47.392Z,4.00
2022-09-23T07:06:14.866Z,3.10
2022-09-23T07:08:51.205Z,2.97
2022-09-23T07:11:22.329Z,3.63
2022-09-23T07:13:49.735Z,2.83
2022-09-23T07:16:16.999Z,3.63
2022-09-23T07:18:44.496Z,3.38
2022-09-23T07:21:14.967Z,3.72
2022-09-23T07:23:46.553Z,3.17
2022-09-23T07:26:14.642Z,3.45
2022-09-23T07:28:42.463Z,3.42
2022-09-23T07:31:12.555Z,3.60
2022-09-23T07:33:44.036Z,2.70
2022-09-23T07:36:14.112Z,3.08
2022-09-23T07:38:45.219Z,2.95
2022-09-23T07:41:16.861Z,3.17
2022-09-23T07:43:45.092Z,3.60
2022-09-23T07:46:17.408Z,3.83
2022-09-23T07:48:45.920Z,2.65
2022-09-23T07:51:17.967Z,2.75
2022-09-23T07:53:48.455Z,2.97
2022-09-23T07:56:15.774Z,2.10
2022-09-23T07:58:43.138Z,2.40
2022-09-23T08:01:11.943Z,2.58
2022-09-23T08:03:39.413Z,2.80
2022-09-23T08:06:08.563Z,2.47
2022-09-23T08:08:40.434Z,2.60
2022-09-23T08:11:10.285Z,2.88
2022-09-23T08:13:37.567Z,3.53
2022-09-23T08:16:04.928Z,3.58
2022-09-23T08:18:32.680Z,3.08
2022-09-23T08:21:00.316Z,3.10
2022-09-23T08:23:27.839Z,2.70
2022-09-23T08:26:00.012Z,2.40
2022-09-23T08:28:27.774Z,3.03
2022-09-23T08:30:55.218Z,3.15
2022-09-23T08:33:23.739Z,3.20
2022-09-23T08:35:52.268Z,2.92
2022-09-23T08:38:20.533Z,2.92
2022-09-23T08:40:50.005Z,2.70
2022-09-23T08:43:37.811Z,2.92
2022-09-23T08:46:10.768Z,3.08
2022-09-23T08:48:48.091Z,2.88
2022-09-23T08:51:22.919Z,2.38
2022-09-23T08:53:50.310Z,2.17
2022-09-23T08:56:21.362Z,2.13
2022-09-23T08:59:18.465Z,2.17
2022-09-23T09:01:54.534Z,2.55
2022-09-23T09:04:31.887Z,2.63
2022-09-23T09:07:34.803Z,2.60
2022-09-23T09:10:03.611Z,2.97
2022-09-23T09:13:03.318Z,3.95
2022-09-23T09:15:30.564Z,3.05
2022-09-23T09:18:17.974Z,3.33
2022-09-23T09:20:57.064Z,2.72
2022-09-23T09:23:38.702Z,3.50
2022-09-23T09:26:11.087Z,3.55
2022-09-23T09:28:44.976Z,3.47
2022-09-23T09:31:33.978Z,3.05
2022-09-23T09:34:06.429Z,3.42
2022-09-23T09:36:40.426Z,2.38
2022-09-23T09:39:12.411Z,3.05
2022-09-23T09:41:45.221Z,2.83
2022-09-23T09:44:24.451Z,1.83
2022-09-23T09:47:28.377Z,1.83
2022-09-23T09:50:03.226Z,2.40
2022-09-23T09:52:31.705Z,2.25
2022-09-23T09:55:13.901Z,2.30
2022-09-23T09:57:48.932Z,1.60
2022-09-23T10:00:18.913Z,1.00
2022-09-23T10:02:47.264Z,0.93
2022-09-23T10:05:31.794Z,1.05
2022-09-23T10:08:23.189Z,0.98
2022-09-23T10:10:54.967Z,0.77
2022-09-23T10:13:26.463Z,1.08
2022-09-23T10:15:54.939Z,1.02
2022-09-23T10:18:31.923Z,0.82
2022-09-23T10:21:14.911Z,1.10
2022-09-23T10:23:48.425Z,0.90
2022-09-23T10:26:18.555Z,0.95
2022-09-23T10:28:52.217Z,1.10
2022-09-23T10:31:33.919Z,1.40
2022-09-23T10:34:03.477Z,1.00
2022-09-23T10:36:32.864Z,0.90
2022-09-23T10:39:22.243Z,0.90
2022-09-23T10:42:40.237Z,1.20
2022-09-23T10:45:37.543Z,1.33
2022-09-23T10:48:12.642Z,1.00
2022-09-23T10:50:47.455Z,0.80
2022-09-23T10:53:49.885Z,0.80
2022-09-23T10:56:38.063Z,1.00
2022-09-23T10:59:18.625Z,0.90
2022-09-23T11:01:59.088Z,0.90
2022-09-23T11:04:41.330Z,1.10
2022-09-23T11:07:38.882Z,1.00
2022-09-23T11:10:23.230Z,0.80
2022-09-23T11:12:59.095Z,1.10
2022-09-23T11:15:34.916Z,1.13
2022-09-23T11:18:37.251Z,1.10
2022-09-23T11:21:34.803Z,1.00
2022-09-23T11:24:24.677Z,0.98
2022-09-23T11:27:06.932Z,1.10
2022-09-23T11:30:13.257Z,0.95
2022-09-23T11:32:52.434Z,0.88
2022-09-23T11:35:27.863Z,1.15
2022-09-23T11:38:02.099Z,0.80
2022-09-23T11:40:36.257Z,0.70
2022-09-23T11:43:23.281Z,1.10
2022-09-23T11:46:15.382Z,0.82
2022-09-23T11:48:51.667Z,0.90
2022-09-23T11:51:23.551Z,1.00
2022-09-23T11:54:04.516Z,0.73
2022-09-23T11:56:39.810Z,0.88
2022-09-23T11:59:40.229Z,0.95
2022-09-23T12:02:22.221Z,0.80
2022-09-23T12:05:10.671Z,1.00
2022-09-23T12:07:56.619Z,0.82
2022-09-23T12:10:41.759Z,1.10
2022-09-23T12:13:19.288Z,1.00
2022-09-23T12:16:36.936Z,0.75
2022-09-23T12:19:22.559Z,1.00
2022-09-23T12:22:04.558Z,1.00
2022-09-23T12:24:56.689Z,1.20
2022-09-23T12:27:34.146Z,1.20
2022-09-23T12:30:12.816Z,0.98
2022-09-23T12:32:42.287Z,0.82
2022-09-23T12:35:35.535Z,0.60
2022-09-23T12:38:02.911Z,1.00
2022-09-23T12:40:43.889Z,0.60
2022-09-23T12:43:18.220Z,0.82
2022-09-23T12:45:45.734Z,0.80
2022-09-23T12:48:15.837Z,0.70
2022-09-23T12:51:16.248Z,0.90
2022-09-23T12:53:59.662Z,0.88
2022-09-23T12:59:31.701Z,1.00
2022-09-23T13:02:23.673Z,1.00
2022-09-23T13:05:27.509Z,1.10
2022-09-23T13:08:22.448Z,0.90
2022-09-23T13:11:01.406Z,1.02
2022-09-23T13:13:37.211Z,1.58
2022-09-23T13:16:13.607Z,0.80
2022-09-23T13:18:56.754Z,1.20
2022-09-23T13:21:42.459Z,0.95
2022-09-23T13:24:12.530Z,0.75
2022-09-23T13:26:48.779Z,0.90
2022-09-23T13:29:25.731Z,0.73
2022-09-23T13:31:56.555Z,0.80
2022-09-23T13:34:28.882Z,0.80
2022-09-23T13:36:55.959Z,0.80
2022-09-23T13:39:25.380Z,0.75
2022-09-23T13:41:55.868Z,0.70
2022-09-23T13:44:23.621Z,1.00
2022-09-23T13:46:54.838Z,0.70
2022-09-23T13:49:35.302Z,1.00
2022-09-23T13:52:03.942Z,1.02
2022-09-23T13:54:48.727Z,1.00
2022-09-23T13:57:30.662Z,1.00
2022-09-23T14:00:21.147Z,0.98
2022-09-23T14:02:48.264Z,0.85
2022-09-23T14:05:24.427Z,0.90
2022-09-23T14:07:53.718Z,0.70
2022-09-23T14:10:23.591Z,0.90
2022-09-23T14:12:52.694Z,2.35
2022-09-23T14:15:20.813Z,1.08
2022-09-23T14:17:52.307Z,1.00
2022-09-23T14:20:21.883Z,1.05
2022-09-23T14:23:04.487Z,0.82
2022-09-23T14:25:31.979Z,0.80
2022-09-23T14:28:00.637Z,1.13
2022-09-23T14:30:28.486Z,1.10
2022-09-23T14:32:55.728Z,0.90
2022-09-23T14:35:27.773Z,0.70
2022-09-23T14:38:16.955Z,0.75
2022-09-23T14:41:14.567Z,1.00
2022-09-23T14:43:52.474Z,0.98
2022-09-23T14:46:21.732Z,0.90
2022-09-23T14:48:58.440Z,1.10
2022-09-23T14:51:33.139Z,0.80
2022-09-23T14:54:38.791Z,1.00
2022-09-23T14:57:28.296Z,1.10
2022-09-23T15:00:09.256Z,1.00
2022-09-23T15:02:39.230Z,1.02
2022-09-23T15:05:30.230Z,0.70
2022-09-23T15:08:01.476Z,0.77
2022-09-23T15:10:37.449Z,0.95
2022-09-23T15:13:13.091Z,0.93
2022-09-23T15:15:42.060Z,2.00
2022-09-23T15:18:30.166Z,1.17
2022-09-23T15:21:01.724Z,0.85
2022-09-23T15:23:45.489Z,0.85
2022-09-23T15:26:16.559Z,0.90
2022-09-23T15:28:44.776Z,1.13
2022-09-23T15:31:16.392Z,0.98
2022-09-23T15:33:50.714Z,0.95
2022-09-23T15:36:25.794Z,0.80
2022-09-23T15:38:54.002Z,1.25
2022-09-23T15:41:21.343Z,1.00
2022-09-23T15:43:48.470Z,1.30
2022-09-23T15:46:25.819Z,0.90
2022-09-23T15:49:08.339Z,0.90
2022-09-23T15:51:37.347Z,0.88
2022-09-23T15:54:12.108Z,0.82
2022-09-23T15:56:39.736Z,1.48
2022-09-23T15:59:06.955Z,1.00
2022-09-23T16:01:36.452Z,0.95
2022-09-23T16:04:04.401Z,1.10
2022-09-23T16:06:32.724Z,1.30
2022-09-23T16:08:59.922Z,1.40
2022-09-23T16:11:31.727Z,1.40
2022-09-23T16:14:00.460Z,1.20
2022-09-23T16:16:28.312Z,1.30
2022-09-23T16:18:55.624Z,1.35
2022-09-23T16:21:27.873Z,1.20
2022-09-23T16:23:57.209Z,1.20
2022-09-23T16:26:34.560Z,0.90
2022-09-23T16:29:02.339Z,1.17
2022-09-23T16:31:32.756Z,1.08
2022-09-23T16:34:02.264Z,1.10
2022-09-23T16:36:35.711Z,1.30
2022-09-23T16:39:06.391Z,1.08
2022-09-23T16:41:33.865Z,1.20
2022-09-23T16:44:02.487Z,1.52
2022-09-23T16:46:31.254Z,1.50
2022-09-23T16:48:59.395Z,1.30
2022-09-23T16:51:37.903Z,1.13
2022-09-23T16:54:12.799Z,1.30
2022-09-23T16:56:44.116Z,1.17
2022-09-23T16:59:15.628Z,1.20
2022-09-23T17:02:01.748Z,1.25
2022-09-23T17:04:29.096Z,1.20
2022-09-23T17:06:56.486Z,1.20
2022-09-23T17:09:26.897Z,1.02
2022-09-23T17:12:19.598Z,1.33
2022-09-23T17:14:46.849Z,1.45
2022-09-23T17:17:13.932Z,1.10
2022-09-23T17:19:41.379Z,1.20
2022-09-23T17:22:09.806Z,1.42
2022-09-23T17:24:36.941Z,1.90
2022-09-23T17:27:04.074Z,1.38
2022-09-23T17:29:31.242Z,1.30
2022-09-23T17:31:58.414Z,1.25
2022-09-23T17:34:25.566Z,1.52
2022-09-23T17:36:52.689Z,1.83
2022-09-23T17:39:19.807Z,1.30
2022-09-23T17:41:46.894Z,1.30
2022-09-23T17:44:16.059Z,1.60
2022-09-23T17:46:43.540Z,1.83
2022-09-23T17:49:11.289Z,2.10
2022-09-23T17:51:38.455Z,1.35
2022-09-23T17:54:06.285Z,1.35
2022-09-23T17:56:33.922Z,1.20
2022-09-23T17:59:02.124Z,1.75
2022-09-23T18:01:29.492Z,1.20
2022-09-23T18:04:01.408Z,1.25
2022-09-23T18:06:33.427Z,1.30
2022-09-23T18:09:03.699Z,1.33
2022-09-23T18:11:34.442Z,1.50
2022-09-23T18:14:06.982Z,1.35
2022-09-23T18:16:36.458Z,1.10
2022-09-23T18:19:04.368Z,1.23
2022-09-23T18:21:37.308Z,1.40
2022-09-23T18:24:30.803Z,1.33
2022-09-23T18:26:52.760Z,1.50
2022-09-23T18:29:19.902Z,1.65
2022-09-23T18:31:50.921Z,1.20
2022-09-23T18:34:18.555Z,1.27
2022-09-23T18:36:45.987Z,1.42
2022-09-23T18:39:13.217Z,1.13
2022-09-23T18:41:41.160Z,1.55
2022-09-23T18:44:08.986Z,1.75
2022-09-23T18:46:36.481Z,1.25
2022-09-23T18:49:22.921Z,1.30
2022-09-23T18:51:53.620Z,1.73
2022-09-23T18:54:21.156Z,1.63
2022-09-23T18:56:49.325Z,1.80
2022-09-23T18:59:20.526Z,1.40
2022-09-23T19:01:50.053Z,1.58
2022-09-23T19:04:20.104Z,1.65
2022-09-23T19:06:47.747Z,1.45
2022-09-23T19:09:15.877Z,1.50
2022-09-23T19:11:44.323Z,1.77
2022-09-23T19:14:12.018Z,1.35
2022-09-23T19:16:40.497Z,1.83
2022-09-23T19:19:08.365Z,1.30
2022-09-23T19:21:35.903Z,2.08
2022-09-23T19:24:06.111Z,1.50
2022-09-23T19:26:39.110Z,1.75
2022-09-23T19:29:08.386Z,1.60
2022-09-23T19:31:40.796Z,1.52
2022-09-23T19:34:16.155Z,2.20
2022-09-23T19:36:45.211Z,1.58
2022-09-23T19:39:23.658Z,1.63
2022-09-23T19:41:52.496Z,1.83
2022-09-23T19:44:20.138Z,1.50
2022-09-23T19:46:53.481Z,1.50
2022-09-23T19:49:24.388Z,1.70
2022-09-23T19:51:51.780Z,1.70
2022-09-23T19:54:21.420Z,1.52
2022-09-23T19:56:49.609Z,1.60
2022-09-23T19:59:19.178Z,2.08
2022-09-23T20:01:49.526Z,1.73
2022-09-23T20:04:16.764Z,1.75
2022-09-23T20:06:43.993Z,1.90
2022-09-23T20:09:11.133Z,1.90
2022-09-23T20:11:38.775Z,2.47
2022-09-23T20:14:06.236Z,1.80
2022-09-23T20:16:35.822Z,1.98
2022-09-23T20:19:04.224Z,1.83
2022-09-23T20:21:31.945Z,2.30
2022-09-23T20:23:59.424Z,2.08
2022-09-23T20:26:45.242Z,1.75
2022-09-23T20:29:12.398Z,1.83
2022-09-23T20:31:41.508Z,2.67
2022-09-23T20:34:10.373Z,2.10
2022-09-23T20:36:39.955Z,2.03
2022-09-23T20:39:07.935Z,1.70
2022-09-23T20:41:37.760Z,1.90
2022-09-23T20:44:08.105Z,1.75
2022-09-23T20:46:35.853Z,2.08
2022-09-23T20:49:03.888Z,2.30
2022-09-23T20:51:33.300Z,1.98
2022-09-23T20:54:01.013Z,2.72
2022-09-23T20:56:29.109Z,2.03
2022-09-23T20:59:04.202Z,2.00
2022-09-23T21:01:35.466Z,1.88
2022-09-23T21:04:04.942Z,1.60
2022-09-23T21:06:34.108Z,2.35
2022-09-23T21:09:01.615Z,2.05
2022-09-23T21:11:29.239Z,2.03
2022-09-23T21:13:56.758Z,2.13
2022-09-23T21:16:24.501Z,2.30
2022-09-23T21:18:52.552Z,1.90
2022-09-23T21:21:22.114Z,2.20
2022-09-23T21:23:50.930Z,2.35
2022-09-23T21:26:20.531Z,2.15
2022-09-23T21:28:50.191Z,2.13
2022-09-23T21:31:25.318Z,2.10
2022-09-23T21:33:56.617Z,2.47
2022-09-23T21:36:24.961Z,2.00
2022-09-23T21:38:53.142Z,2.00
2022-09-23T21:41:20.391Z,2.58
2022-09-23T21:43:49.573Z,2.35
2022-09-23T21:46:21.685Z,2.47
2022-09-23T21:48:53.117Z,2.28
2022-09-23T21:51:25.572Z,1.95
2022-09-23T21:53:55.432Z,2.90
2022-09-23T21:56:25.958Z,2.88
2022-09-23T21:58:54.452Z,2.65
2022-09-23T22:01:26.988Z,2.47
2022-09-23T22:03:59.155Z,2.38
2022-09-23T22:06:28.249Z,2.13
2022-09-23T22:09:00.452Z,2.40
2022-09-23T22:11:48.414Z,2.88
2022-09-23T22:14:17.616Z,2.72
2022-09-23T22:16:45.110Z,2.95
2022-09-23T22:19:13.782Z,2.83
2022-09-23T22:21:43.423Z,2.97
2022-09-23T22:24:11.851Z,3.28
2022-09-23T22:26:41.872Z,2.80
2022-09-23T22:29:30.531Z,3.38
2022-09-23T22:32:17.023Z,2.78
2022-09-23T22:34:50.586Z,3.38
2022-09-23T22:37:21.760Z,3.10
2022-09-23T22:39:48.998Z,3.22
2022-09-23T22:42:16.214Z,2.85
2022-09-23T22:44:43.531Z,3.33
2022-09-23T22:47:10.730Z,2.88
2022-09-23T22:49:37.905Z,2.83
2022-09-23T22:52:07.910Z,3.20
2022-09-23T22:54:35.798Z,4.28
2022-09-23T22:57:07.688Z,3.35
2022-09-23T22:59:35.803Z,2.72
2022-09-23T23:02:03.779Z,3.70
2022-09-23T23:04:31.008Z,3.58
2022-09-23T23:06:58.788Z,6.40
2022-09-23T23:09:26.075Z,6.20
2022-09-23T23:11:53.234Z,4.22
2022-09-23T23:14:20.627Z,4.63
2022-09-23T23:16:47.922Z,4.32
2022-09-23T23:19:17.511Z,3.80
2022-09-23T23:21:45.486Z,3.70
2022-09-23T23:24:18.687Z,3.92
2022-09-23T23:26:46.154Z,3.67
2022-09-23T23:29:15.227Z,3.63
2022-09-23T23:31:42.767Z,3.88
2022-09-23T23:34:16.200Z,4.25
2022-09-23T23:36:44.819Z,3.78
2022-09-23T23:39:13.322Z,4.20
2022-09-23T23:41:41.453Z,4.53
2022-09-23T23:44:09.094Z,4.07
2022-09-23T23:46:37.221Z,4.22
2022-09-23T23:49:06.155Z,4.90
2022-09-23T23:51:33.278Z,3.90
2022-09-23T23:54:00.734Z,3.83
2022-09-23T23:56:29.947Z,4.75
2022-09-23T23:58:59.381Z,4.63
